Excellence — KTDP — position and weather

sailwx.info

Track history (hours):
 
Tides and Currents Weather Stations Pressure Air Temp Water Temp Dewpoint Dewpoint Depression Visibility Wind Speed Wind Dir Waves Ship Positions

Excellence

Owner: ALASKA JOINT VENTURE SEAFOODS INC, SEATTLE, WA. More information available from US FCC via Universal Licensing System and Coast Guard Vessel Documentation Center.

Last reported at 2015-May-22 15:33 UTC. Time now 2015-May-22 16:06 UTC.
Position N 47°39' W 125°07'.

Length 112 m; draft 7 m.

Type: Fishing. MMSI: 338162000.

Date/timePositionNaut miles runAvg speedWind from/ knotsBaromVisibWave heightAir tempDewpointWater temp
2015-May-22 15:33N 47°39' W 125°07'10 9.8
2015-May-22 14:31N 47°48' W 125°14'3 3.1
2015-May-22 13:24N 47°51' W 125°11'1 0.8
2015-May-22 12:19N 47°52' W 125°12'4 5.4
2015-May-22 11:33N 47°47' W 125°12'3 3.5
2015-May-22 10:33N 47°51' W 125°13'3 2.4
2015-May-22 09:23N 47°53' W 125°16'3 3.9
2015-May-22 08:33N 47°55' W 125°12'3 2.9
2015-May-22 07:22N 47°57' W 125°08'3 3.8
2015-May-22 06:33N 47°54' W 125°09'3 3.5
2015-May-22 05:33N 47°50' W 125°09'1 0.6
2015-May-22 04:33N 47°50' W 125°10'2 2.1
2015-May-22 03:33N 47°52' W 125°12'3 2.5
2015-May-22 02:31N 47°52' W 125°16'1 1.0
2015-May-22 01:33N 47°52' W 125°15'1 0.5
2015-May-22 00:33N 47°52' W 125°15'2 2.3
2015-May-21 23:33N 47°51' W 125°12'3 2.5
2015-May-21 22:21N 47°53' W 125°16'3 4.1
2015-May-21 21:33N 47°50' W 125°13'1 1.1
2015-May-21 20:33N 47°51' W 125°12'1 1.0
2015-May-21 19:33N 47°50' W 125°11'3 3.1
2015-May-21 18:33N 47°51' W 125°15'2 2.4
2015-May-21 17:33N 47°50' W 125°12'2 1.6
2015-May-21 16:33N 47°51' W 125°13'1 0.8
2015-May-21 15:33N 47°52' W 125°13'3 2.9
2015-May-21 14:33N 47°50' W 125°10'3 2.6
2015-May-21 13:33N 47°52' W 125°12'2 1.8
2015-May-21 12:34N 47°51' W 125°10'3 3.1
2015-May-21 11:27N 47°55' W 125°08'3 3.8
2015-May-21 10:33N 47°52' W 125°06'4 4.1
2015-May-21 09:33N 47°49' W 125°10'3 3.2
2015-May-21 08:33N 47°50' W 125°15'5 4.9
2015-May-21 07:33N 47°54' W 125°19'3 2.7
2015-May-21 06:33N 47°53' W 125°15'3 3.3
2015-May-21 05:33N 47°52' W 125°11'1 0.9
2015-May-21 04:33N 47°51' W 125°12'1 1.2
2015-May-21 03:33N 47°51' W 125°10'1 0.7
2015-May-21 02:33N 47°51' W 125°12'3 3.2
2015-May-21 01:33N 47°53' W 125°15'3 2.5
2015-May-21 00:23N 47°50' W 125°14'3 3.7
2015-May-20 23:33N 47°50' W 125°10'5 5.2
2015-May-20 22:33N 47°54' W 125°14'3 3.1
2015-May-20 21:33N 47°52' W 125°11'1 0.9
2015-May-20 20:33N 47°51' W 125°11'3 3.4
2015-May-20 19:32N 47°53' W 125°15'7 6.1
2015-May-20 18:22N 47°59' W 125°22'2 2.3
2015-May-20 17:30N 47°60' W 125°20'7 7.1
2015-May-20 16:33N 47°53' W 125°15'6 5.9
2015-May-20 15:33N 47°49' W 125°09'4 2.7
2015-May-20 14:14N 47°51' W 125°14'4 6.3
2015-May-20 13:31N 47°48' W 125°09'4 4.0
2015-May-20 12:26N 47°44' W 125°10'5 5.0
2015-May-20 11:30N 47°41' W 125°05'4 3.1
2015-May-20 10:20N 47°38' W 125°01'3 4.0
2015-May-20 09:29N 47°38' W 125°06'5 4.2
2015-May-20 08:22N 47°37' W 125°13'3 4.2
2015-May-20 07:34N 47°37' W 125°18'2 2.0
2015-May-20 06:34N 47°38' W 125°20'4 4.2
2015-May-20 05:33N 47°42' W 125°16'5 4.6
2015-May-20 04:34N 47°46' W 125°13'6 6.1
2015-May-20 03:32N 47°40' W 125°08'8 7.5
2015-May-20 02:27N 47°33' W 125°04'1 0.7
2015-May-20 01:33N 47°32' W 125°03'4 4.0
2015-May-20 00:33N 47°35' W 125°08'2 1.6
2015-May-19 23:32N 47°37' W 125°08'5 4.2
2015-May-19 22:26N 47°33' W 125°03'7 2.2
2015-May-19 19:22N 47°39' W 125°08'4 4.4
2015-May-19 18:31N 47°39' W 125°14'4 3.7
2015-May-19 17:33N 47°42' W 125°11'2 1.1
2015-May-19 15:19N 47°40' W 125°10'2 1.8
2015-May-19 14:26N 47°40' W 125°07'2 1.4
2015-May-19 13:14N 47°38' W 125°07'1 0.7
2015-May-19 12:16N 47°38' W 125°06'8 4.5
2015-May-19 10:27N 47°37' W 125°18'3 3.2
2015-May-19 09:31N 47°38' W 125°22'3 3.6
2015-May-19 08:33N 47°38' W 125°17'4 4.2
2015-May-19 07:31N 47°38' W 125°10'1 0.4
2015-May-19 06:21N 47°38' W 125°10'2 2.1
2015-May-19 05:13N 47°40' W 125°08'1 1.2
2015-May-19 04:27N 47°39' W 125°08'4 3.8
2015-May-19 03:26N 47°43' W 125°07'2 1.4
2015-May-19 02:13N 47°42' W 125°09'3 1.7
2015-May-19 00:31N 47°39' W 125°10'3 3.0
2015-May-18 23:33N 47°41' W 125°07'1 1.2
2015-May-18 22:19N 47°40' W 125°08'12 4.0
2015-May-18 19:17N 47°30' W 124°58'810.0
2015-May-18 18:32N 47°24' W 124°50'4 3.5
2015-May-18 17:31N 47°28' W 124°52'8 6.1
2015-May-18 16:17N 47°21' W 124°49'14 8.1
2015-May-18 14:33N 47°09' W 124°59'10 9.4
2015-May-18 13:29N 46°59' W 125°00'9 9.6
2015-May-18 12:32N 46°52' W 124°51'5 5.4
2015-May-18 11:33N 46°46' W 124°50'5 5.4
2015-May-18 10:33N 46°41' W 124°49'6 5.8
2015-May-18 09:33N 46°35' W 124°49'1110.5
2015-May-18 08:33N 46°25' W 124°46'1211.9
2015-May-18 07:33N 46°13' W 124°42'1211.6
2015-May-18 06:33N 46°02' W 124°38'1111.3
2015-May-18 05:33N 45°51' W 124°35'1111.3
2015-May-18 04:33N 45°40' W 124°32'1111.2
2015-May-18 03:33N 45°29' W 124°29'1111.0
2015-May-18 02:34N 45°18' W 124°27'  
2015-May-15 14:05N 45°05' W 124°20'2 1.1
2015-May-15 12:10N 45°07' W 124°19'3 0.4
2015-May-15 04:05N 45°09' W 124°21'714.3
2015-May-15 03:33N 45°17' W 124°21'1313.1
2015-May-15 02:33N 45°28' W 124°30'9 9.0
2015-May-15 01:33N 45°34' W 124°40'5 4.7
2015-May-15 00:33N 45°38' W 124°43'1414.3
2015-May-14 23:33N 45°52' W 124°43'1414.2
2015-May-14 22:33N 46°06' W 124°44'1414.3
2015-May-14 21:33N 46°21' W 124°46'1414.1
2015-May-14 20:33N 46°35' W 124°48'1414.2
2015-May-14 19:33N 46°49' W 124°51'1414.1
2015-May-14 18:32N 47°03' W 124°52'4714.2
2015-May-14 15:13N 47°50' W 125°01'1213.7
2015-May-14 14:21N 48°01' W 125°04'1113.7
2015-May-14 13:33N 48°12' W 125°06'1313.3
2015-May-14 12:33N 48°25' W 125°06'1212.3
2015-May-14 11:33N 48°31' W 124°50'1413.8
2015-May-14 10:34N 48°27' W 124°30'1414.0
2015-May-14 09:33N 48°21' W 124°10'1413.5
2015-May-14 08:33N 48°17' W 123°51'1312.7
2015-May-14 07:33N 48°15' W 123°32'1212.0
2015-May-14 06:33N 48°13' W 123°14'1312.7
2015-May-14 05:33N 48°12' W 122°55'1211.8
2015-May-14 04:33N 48°07' W 122°39'1312.9
2015-May-14 03:34N 47°56' W 122°30'1211.8
2015-May-14 02:33N 47°44' W 122°25'2 2.0
2015-May-14 01:33N 47°42' W 122°25'1 0.9
2015-May-14 00:33N 47°43' W 122°26'6 5.9
2015-May-13 23:33N 47°37' W 122°25'1 1.1
2015-May-13 22:24N 47°38' W 122°23'0 0.0
2015-May-13 21:33N 47°38' W 122°23'0 0.0
2015-May-13 20:33N 47°38' W 122°23'0 0.0
2015-May-13 19:33N 47°38' W 122°23'  
Track history (hours):
 
Tides and Currents Weather Stations Pressure Air Temp Water Temp Dewpoint Dewpoint Depression Visibility Wind Speed Wind Dir Waves Ship Positions

Excellence

Owner: ALASKA JOINT VENTURE SEAFOODS INC, SEATTLE, WA. More information available from US FCC via Universal Licensing System and Coast Guard Vessel Documentation Center.

Last reported at 2015-May-22 15:33 UTC. Time now 2015-May-22 16:06 UTC.
Position N 47°39' W 125°07'.

Length 112 m; draft 7 m.

Type: Fishing. MMSI: 338162000.

Date/timePositionNaut miles runAvg speedWind from/ knotsBaromVisibWave heightAir tempDewpointWater temp
2015-May-22 15:33N 47°39' W 125°07'10 9.8
2015-May-22 14:31N 47°48' W 125°14'3 3.1
2015-May-22 13:24N 47°51' W 125°11'1 0.8
2015-May-22 12:19N 47°52' W 125°12'4 5.4
2015-May-22 11:33N 47°47' W 125°12'3 3.5
2015-May-22 10:33N 47°51' W 125°13'3 2.4
2015-May-22 09:23N 47°53' W 125°16'3 3.9
2015-May-22 08:33N 47°55' W 125°12'3 2.9
2015-May-22 07:22N 47°57' W 125°08'3 3.8
2015-May-22 06:33N 47°54' W 125°09'3 3.5
2015-May-22 05:33N 47°50' W 125°09'1 0.6
2015-May-22 04:33N 47°50' W 125°10'2 2.1
2015-May-22 03:33N 47°52' W 125°12'3 2.5
2015-May-22 02:31N 47°52' W 125°16'1 1.0
2015-May-22 01:33N 47°52' W 125°15'1 0.5
2015-May-22 00:33N 47°52' W 125°15'2 2.3
2015-May-21 23:33N 47°51' W 125°12'3 2.5
2015-May-21 22:21N 47°53' W 125°16'3 4.1
2015-May-21 21:33N 47°50' W 125°13'1 1.1
2015-May-21 20:33N 47°51' W 125°12'1 1.0
2015-May-21 19:33N 47°50' W 125°11'3 3.1
2015-May-21 18:33N 47°51' W 125°15'2 2.4
2015-May-21 17:33N 47°50' W 125°12'2 1.6
2015-May-21 16:33N 47°51' W 125°13'1 0.8
2015-May-21 15:33N 47°52' W 125°13'3 2.9
2015-May-21 14:33N 47°50' W 125°10'3 2.6
2015-May-21 13:33N 47°52' W 125°12'2 1.8
2015-May-21 12:34N 47°51' W 125°10'3 3.1
2015-May-21 11:27N 47°55' W 125°08'3 3.8
2015-May-21 10:33N 47°52' W 125°06'4 4.1
2015-May-21 09:33N 47°49' W 125°10'3 3.2
2015-May-21 08:33N 47°50' W 125°15'5 4.9
2015-May-21 07:33N 47°54' W 125°19'3 2.7
2015-May-21 06:33N 47°53' W 125°15'3 3.3
2015-May-21 05:33N 47°52' W 125°11'1 0.9
2015-May-21 04:33N 47°51' W 125°12'1 1.2
2015-May-21 03:33N 47°51' W 125°10'1 0.7
2015-May-21 02:33N 47°51' W 125°12'3 3.2
2015-May-21 01:33N 47°53' W 125°15'3 2.5
2015-May-21 00:23N 47°50' W 125°14'3 3.7
2015-May-20 23:33N 47°50' W 125°10'5 5.2
2015-May-20 22:33N 47°54' W 125°14'3 3.1
2015-May-20 21:33N 47°52' W 125°11'1 0.9
2015-May-20 20:33N 47°51' W 125°11'3 3.4
2015-May-20 19:32N 47°53' W 125°15'7 6.1
2015-May-20 18:22N 47°59' W 125°22'2 2.3
2015-May-20 17:30N 47°60' W 125°20'7 7.1
2015-May-20 16:33N 47°53' W 125°15'6 5.9
2015-May-20 15:33N 47°49' W 125°09'4 2.7
2015-May-20 14:14N 47°51' W 125°14'4 6.3
2015-May-20 13:31N 47°48' W 125°09'4 4.0
2015-May-20 12:26N 47°44' W 125°10'5 5.0
2015-May-20 11:30N 47°41' W 125°05'4 3.1
2015-May-20 10:20N 47°38' W 125°01'3 4.0
2015-May-20 09:29N 47°38' W 125°06'5 4.2
2015-May-20 08:22N 47°37' W 125°13'3 4.2
2015-May-20 07:34N 47°37' W 125°18'2 2.0
2015-May-20 06:34N 47°38' W 125°20'4 4.2
2015-May-20 05:33N 47°42' W 125°16'5 4.6
2015-May-20 04:34N 47°46' W 125°13'6 6.1
2015-May-20 03:32N 47°40' W 125°08'8 7.5
2015-May-20 02:27N 47°33' W 125°04'1 0.7
2015-May-20 01:33N 47°32' W 125°03'4 4.0
2015-May-20 00:33N 47°35' W 125°08'2 1.6
2015-May-19 23:32N 47°37' W 125°08'5 4.2
2015-May-19 22:26N 47°33' W 125°03'7 2.2
2015-May-19 19:22N 47°39' W 125°08'4 4.4
2015-May-19 18:31N 47°39' W 125°14'4 3.7
2015-May-19 17:33N 47°42' W 125°11'2 1.1
2015-May-19 15:19N 47°40' W 125°10'2 1.8
2015-May-19 14:26N 47°40' W 125°07'2 1.4
2015-May-19 13:14N 47°38' W 125°07'1 0.7
2015-May-19 12:16N 47°38' W 125°06'8 4.5
2015-May-19 10:27N 47°37' W 125°18'3 3.2
2015-May-19 09:31N 47°38' W 125°22'3 3.6
2015-May-19 08:33N 47°38' W 125°17'4 4.2
2015-May-19 07:31N 47°38' W 125°10'1 0.4
2015-May-19 06:21N 47°38' W 125°10'2 2.1
2015-May-19 05:13N 47°40' W 125°08'1 1.2
2015-May-19 04:27N 47°39' W 125°08'4 3.8
2015-May-19 03:26N 47°43' W 125°07'2 1.4
2015-May-19 02:13N 47°42' W 125°09'3 1.7
2015-May-19 00:31N 47°39' W 125°10'3 3.0
2015-May-18 23:33N 47°41' W 125°07'1 1.2
2015-May-18 22:19N 47°40' W 125°08'12 4.0
2015-May-18 19:17N 47°30' W 124°58'810.0
2015-May-18 18:32N 47°24' W 124°50'4 3.5
2015-May-18 17:31N 47°28' W 124°52'8 6.1
2015-May-18 16:17N 47°21' W 124°49'14 8.1
2015-May-18 14:33N 47°09' W 124°59'10 9.4
2015-May-18 13:29N 46°59' W 125°00'9 9.6
2015-May-18 12:32N 46°52' W 124°51'5 5.4
2015-May-18 11:33N 46°46' W 124°50'5 5.4
2015-May-18 10:33N 46°41' W 124°49'6 5.8
2015-May-18 09:33N 46°35' W 124°49'1110.5
2015-May-18 08:33N 46°25' W 124°46'1211.9
2015-May-18 07:33N 46°13' W 124°42'1211.6
2015-May-18 06:33N 46°02' W 124°38'1111.3
2015-May-18 05:33N 45°51' W 124°35'1111.3
2015-May-18 04:33N 45°40' W 124°32'1111.2
2015-May-18 03:33N 45°29' W 124°29'1111.0
2015-May-18 02:34N 45°18' W 124°27'  
2015-May-15 14:05N 45°05' W 124°20'2 1.1
2015-May-15 12:10N 45°07' W 124°19'3 0.4
2015-May-15 04:05N 45°09' W 124°21'714.3
2015-May-15 03:33N 45°17' W 124°21'1313.1
2015-May-15 02:33N 45°28' W 124°30'9 9.0
2015-May-15 01:33N 45°34' W 124°40'5 4.7
2015-May-15 00:33N 45°38' W 124°43'1414.3
2015-May-14 23:33N 45°52' W 124°43'1414.2
2015-May-14 22:33N 46°06' W 124°44'1414.3
2015-May-14 21:33N 46°21' W 124°46'1414.1
2015-May-14 20:33N 46°35' W 124°48'1414.2
2015-May-14 19:33N 46°49' W 124°51'1414.1
2015-May-14 18:32N 47°03' W 124°52'4714.2
2015-May-14 15:13N 47°50' W 125°01'1213.7
2015-May-14 14:21N 48°01' W 125°04'1113.7
2015-May-14 13:33N 48°12' W 125°06'1313.3
2015-May-14 12:33N 48°25' W 125°06'1212.3
2015-May-14 11:33N 48°31' W 124°50'1413.8
2015-May-14 10:34N 48°27' W 124°30'1414.0
2015-May-14 09:33N 48°21' W 124°10'1413.5
2015-May-14 08:33N 48°17' W 123°51'1312.7
2015-May-14 07:33N 48°15' W 123°32'1212.0
2015-May-14 06:33N 48°13' W 123°14'1312.7
2015-May-14 05:33N 48°12' W 122°55'1211.8
2015-May-14 04:33N 48°07' W 122°39'1312.9
2015-May-14 03:34N 47°56' W 122°30'1211.8
2015-May-14 02:33N 47°44' W 122°25'2 2.0
2015-May-14 01:33N 47°42' W 122°25'1 0.9
2015-May-14 00:33N 47°43' W 122°26'6 5.9
2015-May-13 23:33N 47°37' W 122°25'1 1.1
2015-May-13 22:24N 47°38' W 122°23'0 0.0
2015-May-13 21:33N 47°38' W 122°23'0 0.0
2015-May-13 20:33N 47°38' W 122°23'0 0.0
2015-May-13 19:33N 47°38' W 122°23'  

Dump ship's entire track history